DLH92C EDDM-RJBB
Flight info
| Callsign | DLH92C |
|---|---|
| Flight time | N/A |
| Altitude | 23000 |
| Route | KIRDI4N KIRDI DCT BUWOQ DCT OBFEZ DCT STEIN DCT TEGRI DCT DINRO/N0486F370 DCT UDROS UM859 KARDE UN644 ROLIN DCT TAGAR DCT BT DCT BARAD M747 SUBUT T916 LEYLA N161 GASBI/K0893F370 N161 ABDUN/K0891F390 N161 SARIN/K0885S1190 A368 FKG W188 LIKMI W270 BUVEM/K0883S1250 W270 DKO W69 HUR B339 LADIX W34 VAPGU W100 ORAVA W201 UNSEK A326 DONVO G597 AGAVO/N0482F410 Y644 EGOBA Y697 LANAT Y597 MIHOU Y361 SAEKI Y36 ATMUG |
| Aircraft | A359/H-SADE2E3GHIJ1J2J3J4J5M1P2RWXYZ/LB1D1 |
Departure
| Time | 2026-05-04 21:42 |
|---|---|
| Airport | Munich Airport (EDDM) |
Arrival
| Time | N/A |
|---|---|
| Airport | Kansai International Airport (RJBB) |
| Time | Latitude | Longitude | Altitude | Speed | Heading |
|---|---|---|---|---|---|
| 2026-05-04 21:19 | 48.35689 | 11.79263 | 1476 ft | 0 kts | 263° |
| 2026-05-04 21:28 | 48.35690 | 11.79269 | 1491 ft | 3 kts | 263° |
| 2026-05-04 21:28 | 48.35693 | 11.79310 | 1481 ft | 4 kts | 263° |
| 2026-05-04 21:28 | 48.35696 | 11.79345 | 1476 ft | 2 kts | 263° |
| 2026-05-04 21:28 | 48.35701 | 11.79381 | 1476 ft | 4 kts | 237° |
| 2026-05-04 21:29 | 48.35719 | 11.79405 | 1476 ft | 4 kts | 189° |
| 2026-05-04 21:29 | 48.35744 | 11.79404 | 1476 ft | 4 kts | 173° |
| 2026-05-04 21:29 | 48.35763 | 11.79400 | 1476 ft | 0 kts | 173° |
| 2026-05-04 21:32 | 48.35762 | 11.79400 | 1476 ft | 0 kts | 173° |
| 2026-05-04 21:32 | 48.35744 | 11.79403 | 1476 ft | 5 kts | 173° |
| 2026-05-04 21:33 | 48.35697 | 11.79412 | 1476 ft | 10 kts | 173° |
| 2026-05-04 21:33 | 48.35615 | 11.79426 | 1477 ft | 13 kts | 173° |
| 2026-05-04 21:33 | 48.35521 | 11.79442 | 1483 ft | 14 kts | 173° |
| 2026-05-04 21:33 | 48.35425 | 11.79459 | 1484 ft | 14 kts | 173° |
| 2026-05-04 21:34 | 48.35327 | 11.79476 | 1479 ft | 14 kts | 173° |
| 2026-05-04 21:34 | 48.35226 | 11.79493 | 1481 ft | 15 kts | 173° |
| 2026-05-04 21:34 | 48.35124 | 11.79511 | 1478 ft | 15 kts | 173° |
| 2026-05-04 21:34 | 48.35020 | 11.79529 | 1478 ft | 15 kts | 173° |
| 2026-05-04 21:35 | 48.34916 | 11.79547 | 1478 ft | 15 kts | 173° |
| 2026-05-04 21:35 | 48.34814 | 11.79584 | 1479 ft | 14 kts | 137° |
| 2026-05-04 21:35 | 48.34804 | 11.79719 | 1486 ft | 14 kts | 83° |
| 2026-05-04 21:35 | 48.34815 | 11.79864 | 1482 ft | 14 kts | 83° |
| 2026-05-04 21:36 | 48.34827 | 11.80015 | 1479 ft | 15 kts | 83° |
| 2026-05-04 21:36 | 48.34839 | 11.80171 | 1479 ft | 15 kts | 83° |
| 2026-05-04 21:36 | 48.34830 | 11.80327 | 1482 ft | 15 kts | 118° |
| 2026-05-04 21:36 | 48.34742 | 11.80397 | 1480 ft | 15 kts | 173° |
| 2026-05-04 21:37 | 48.34659 | 11.80411 | 1484 ft | 11 kts | 173° |
| 2026-05-04 21:37 | 48.34617 | 11.80419 | 1484 ft | 0 kts | 174° |
| 2026-05-04 21:38 | 48.34614 | 11.80419 | 1491 ft | 2 kts | 175° |
| 2026-05-04 21:39 | 48.34568 | 11.80415 | 1488 ft | 11 kts | 189° |
| 2026-05-04 21:39 | 48.34502 | 11.80363 | 1476 ft | 11 kts | 220° |
| 2026-05-04 21:39 | 48.34466 | 11.80264 | 1482 ft | 11 kts | 261° |
| 2026-05-04 21:39 | 48.34463 | 11.80235 | 1478 ft | 0 kts | 263° |
| 2026-05-04 21:41 | 48.34461 | 11.80209 | 1486 ft | 12 kts | 263° |
| 2026-05-04 21:41 | 48.34431 | 11.79819 | 1483 ft | 68 kts | 263° |
| 2026-05-04 21:41 | 48.34354 | 11.78813 | 1490 ft | 125 kts | 263° |
| 2026-05-04 21:42 | 48.34234 | 11.77266 | 1531 ft | 168 kts | 262° |
| 2026-05-04 21:42 | 48.34077 | 11.75582 | 2235 ft | 165 kts | 264° |
| 2026-05-04 21:42 | 48.33934 | 11.73795 | 2639 ft | 181 kts | 261° |
| 2026-05-04 21:42 | 48.33422 | 11.71986 | 2771 ft | 200 kts | 231° |
| 2026-05-04 21:43 | 48.32225 | 11.70897 | 2900 ft | 215 kts | 191° |
| 2026-05-04 21:43 | 48.30700 | 11.70730 | 3290 ft | 220 kts | 180° |
| 2026-05-04 21:43 | 48.29169 | 11.70852 | 3769 ft | 221 kts | 169° |
| 2026-05-04 21:43 | 48.27746 | 11.71726 | 4184 ft | 227 kts | 149° |
| 2026-05-04 21:44 | 48.26372 | 11.73080 | 4355 ft | 246 kts | 146° |
| 2026-05-04 21:44 | 48.24920 | 11.74600 | 4623 ft | 261 kts | 146° |
| 2026-05-04 21:44 | 48.23413 | 11.76163 | 5136 ft | 265 kts | 146° |
| 2026-05-04 21:44 | 48.21898 | 11.77720 | 5665 ft | 270 kts | 147° |
| 2026-05-04 21:45 | 48.20344 | 11.79323 | 6256 ft | 273 kts | 145° |
| 2026-05-04 21:45 | 48.18993 | 11.81349 | 6808 ft | 279 kts | 124° |
| 2026-05-04 21:45 | 48.18310 | 11.84066 | 7393 ft | 284 kts | 97° |
| 2026-05-04 21:45 | 48.18347 | 11.87024 | 8020 ft | 286 kts | 85° |
| 2026-05-04 21:46 | 48.18577 | 11.90008 | 8657 ft | 289 kts | 84° |
| 2026-05-04 21:46 | 48.18817 | 11.93009 | 9304 ft | 291 kts | 84° |
| 2026-05-04 21:46 | 48.19048 | 11.96037 | 9930 ft | 294 kts | 85° |
| 2026-05-04 21:46 | 48.19275 | 11.99123 | 10332 ft | 305 kts | 85° |
| 2026-05-04 21:47 | 48.19509 | 12.02377 | 10560 ft | 322 kts | 85° |
| 2026-05-04 21:47 | 48.19751 | 12.05808 | 10785 ft | 339 kts | 85° |
| 2026-05-04 21:47 | 48.20003 | 12.09403 | 10985 ft | 355 kts | 85° |
| 2026-05-04 21:47 | 48.20265 | 12.13170 | 11202 ft | 370 kts | 86° |
| 2026-05-04 21:48 | 48.20535 | 12.17076 | 11492 ft | 382 kts | 86° |
| 2026-05-04 21:48 | 48.20811 | 12.21066 | 11963 ft | 387 kts | 86° |
| 2026-05-04 21:48 | 48.21088 | 12.25096 | 12484 ft | 391 kts | 86° |
| 2026-05-04 21:48 | 48.21272 | 12.27784 | 12834 ft | 393 kts | 86° |
| 2026-05-04 21:49 | 48.21550 | 12.31883 | 13351 ft | 397 kts | 86° |
| 2026-05-04 21:49 | 48.21829 | 12.36021 | 13854 ft | 400 kts | 86° |
| 2026-05-04 21:49 | 48.22110 | 12.40188 | 14328 ft | 403 kts | 86° |
| 2026-05-04 21:49 | 48.22390 | 12.44384 | 14820 ft | 406 kts | 86° |
| 2026-05-04 21:50 | 48.22671 | 12.48613 | 15325 ft | 409 kts | 86° |
| 2026-05-04 21:50 | 48.22952 | 12.52879 | 15795 ft | 412 kts | 86° |
| 2026-05-04 21:50 | 48.23068 | 12.57168 | 16281 ft | 412 kts | 95° |
| 2026-05-04 21:50 | 48.22767 | 12.61452 | 16762 ft | 414 kts | 100° |
| 2026-05-04 21:51 | 48.22360 | 12.65736 | 17238 ft | 417 kts | 100° |
| 2026-05-04 21:51 | 48.21940 | 12.70055 | 17722 ft | 420 kts | 100° |
| 2026-05-04 21:51 | 48.21519 | 12.74402 | 18187 ft | 423 kts | 100° |
| 2026-05-04 21:51 | 48.21097 | 12.78786 | 18595 ft | 426 kts | 100° |
| 2026-05-04 21:52 | 48.20811 | 12.83221 | 19017 ft | 430 kts | 94° |
| 2026-05-04 21:52 | 48.20750 | 12.89177 | 19606 ft | 433 kts | 91° |
| 2026-05-04 21:52 | 48.20790 | 12.92239 | 19909 ft | 435 kts | 90° |
| 2026-05-04 21:52 | 48.20884 | 12.96787 | 20320 ft | 439 kts | 89° |
| 2026-05-04 21:53 | 48.20991 | 13.01371 | 20772 ft | 441 kts | 89° |
| 2026-05-04 21:53 | 48.21090 | 13.05980 | 21252 ft | 443 kts | 89° |
| 2026-05-04 21:53 | 48.21176 | 13.10616 | 21710 ft | 446 kts | 90° |
| 2026-05-04 21:53 | 48.21250 | 13.15273 | 22192 ft | 448 kts | 90° |
| 2026-05-04 21:54 | 48.21315 | 13.19952 | 22648 ft | 451 kts | 90° |
| 2026-05-04 21:54 | 48.21373 | 13.24669 | 23105 ft | 453 kts | 90° |
| 2026-05-04 21:54 | 48.21429 | 13.29407 | 23548 ft | 456 kts | 90° |
| 2026-05-04 21:54 | 48.21481 | 13.34169 | 23909 ft | 458 kts | 90° |
| 2026-05-04 21:55 | 48.21533 | 13.38964 | 24290 ft | 461 kts | 90° |
| 2026-05-04 21:55 | 48.21584 | 13.43771 | 24734 ft | 461 kts | 90° |
| 2026-05-04 21:55 | 48.21634 | 13.48589 | 25111 ft | 464 kts | 90° |
| 2026-05-04 21:55 | 48.21682 | 13.53441 | 25457 ft | 467 kts | 90° |
| 2026-05-04 21:56 | 48.21728 | 13.58318 | 25815 ft | 469 kts | 90° |
| 2026-05-04 21:56 | 48.21772 | 13.63153 | 26165 ft | 472 kts | 90° |
| 2026-05-04 21:56 | 48.21814 | 13.68080 | 26520 ft | 474 kts | 90° |
| 2026-05-04 21:56 | 48.21855 | 13.73039 | 26875 ft | 477 kts | 90° |
| 2026-05-04 21:57 | 48.21894 | 13.78018 | 27226 ft | 479 kts | 90° |
| 2026-05-04 21:57 | 48.21931 | 13.83025 | 27569 ft | 481 kts | 90° |
| 2026-05-04 21:57 | 48.21965 | 13.88064 | 27858 ft | 485 kts | 90° |
| 2026-05-04 21:57 | 48.21959 | 13.93130 | 28171 ft | 487 kts | 94° |
| 2026-05-04 21:58 | 48.21586 | 13.98178 | 28506 ft | 487 kts | 102° |
| 2026-05-04 21:58 | 48.20708 | 14.03081 | 28822 ft | 487 kts | 111° |
| 2026-05-04 21:58 | 48.19494 | 14.07832 | 29108 ft | 489 kts | 114° |
| 2026-05-04 21:58 | 48.18172 | 14.12536 | 29402 ft | 491 kts | 115° |
| 2026-05-04 21:59 | 48.16793 | 14.17220 | 29692 ft | 493 kts | 116° |
| 2026-05-04 21:59 | 48.15387 | 14.21913 | 29962 ft | 495 kts | 116° |
| 2026-05-04 21:59 | 48.13974 | 14.26621 | 30158 ft | 498 kts | 116° |
| 2026-05-04 21:59 | 48.12557 | 14.31361 | 30370 ft | 500 kts | 116° |
| 2026-05-04 22:00 | 48.11141 | 14.36123 | 30683 ft | 499 kts | 116° |
| 2026-05-04 22:00 | 48.09738 | 14.40854 | 31052 ft | 498 kts | 116° |
| 2026-05-04 22:00 | 48.08337 | 14.45584 | 31378 ft | 497 kts | 116° |
| 2026-05-04 22:00 | 48.06937 | 14.50308 | 31701 ft | 496 kts | 116° |
| 2026-05-04 22:01 | 48.05540 | 14.55013 | 32001 ft | 495 kts | 116° |
| 2026-05-04 22:01 | 48.04141 | 14.59717 | 32299 ft | 495 kts | 116° |
| 2026-05-04 22:01 | 48.02744 | 14.64403 | 32634 ft | 493 kts | 116° |